This is the latest recevied weather packets stored in our database for station/object KD2ZLA. If no packets are shown the sender has not sent any weather packets the latest 10 day(s).
| Time | Temp. | Humidity | Pressure | Rain* | Wind** | Luminosity | Snow |
|---|---|---|---|---|---|---|---|
| 1777971411 | 15.56° C | 64% | 1001 hPa | 0 mm | - | 0 W/m² | - |
| 1777971109 | 15.56° C | 64% | 1001.2 hPa | 0 mm | - | 0 W/m² | - |
| 1777970806 | 15.56° C | 64% | 1001.3 hPa | 0 mm | - | 0 W/m² | - |
| 1777970505 | 15.56° C | 65% | 1001.3 hPa | 0 mm | - | 0 W/m² | - |
| 1777970202 | 15.56° C | 66% | 1001.2 hPa | 0 mm | - | 0 W/m² | - |
| 1777969898 | 15.56° C | 66% | 1001.5 hPa | 0 mm | - | 0 W/m² | - |
| 1777969594 | 15.56° C | 65% | 1001.6 hPa | 0 mm | - | 0 W/m² | - |
| 1777969291 | 15.56° C | 65% | 1001.6 hPa | 0 mm | - | 0 W/m² | - |
| 1777968987 | 15° C | 64% | 1001.7 hPa | 0 mm | - | 0 W/m² | - |
| 1777968685 | 15° C | 66% | 1001.7 hPa | 0 mm | - | 0 W/m² | - |
| 1777968381 | 15° C | 67% | 1001.5 hPa | 0 mm | - | 0 W/m² | - |
| 1777968077 | 15° C | 68% | 1001.5 hPa | 0 mm | - | 0 W/m² | - |
| 1777967774 | 14.44° C | 71% | 1001.7 hPa | 0 mm | - | 0 W/m² | - |
| 1777967470 | 14.44° C | 71% | 1001.7 hPa | 0.51 mm | - | 0 W/m² | - |
| 1777967167 | 14.44° C | 71% | 1001.9 hPa | 1.78 mm | - | 0 W/m² | - |
| 1777966864 | 15° C | 67% | 1001.9 hPa | 1.27 mm | - | 0 W/m² | - |
| 1777966562 | 15.56° C | 65% | 1001.8 hPa | 0.51 mm | - | 0 W/m² | - |
| 1777966260 | 16.11° C | 61% | 1001.7 hPa | 0.51 mm | - | 0 W/m² | - |
| 1777965955 | 16.11° C | 56% | 1001.2 hPa | 0 mm | - | 0 W/m² | - |
| 1777965652 | 16.11° C | 58% | 1001.2 hPa | 0 mm | - | 0 W/m² | - |
| 1777965348 | 15.56° C | 58% | 1000.9 hPa | 1.27 mm | - | 0 W/m² | - |
| 1777965048 | 16.11° C | 58% | 1001 hPa | 0.51 mm | - | 0 W/m² | - |
| 1777964743 | 17.22° C | 49% | 1000.9 hPa | 0 mm | - | 0 W/m² | - |
| 1777964439 | 16.67° C | 49% | 1000.9 hPa | 0 mm | - | 0 W/m² | - |
| 1777964135 | 16.67° C | 49% | 1001 hPa | 0 mm | - | 0 W/m² | - |
* Rain latest hour (hover to see other rain measurements)
** Current wind speed in m/s (hover to see current wind gust speed)